sensor_id;sensor_type;location;lat;lon;timestamp;pressure;altitude;pressure_sealevel;temperature;humidity
50650;BME280;36621;60.058;30.346;2023-05-22T00:02:15;102211.34;;;14.55;43.77
50650;BME280;36621;60.058;30.346;2023-05-22T00:09:48;102225.09;;;14.55;44.13
50650;BME280;36621;60.058;30.346;2023-05-22T00:17:20;102222.00;;;14.46;44.26
50650;BME280;36621;60.058;30.346;2023-05-22T00:24:53;102207.34;;;14.35;44.74
50650;BME280;36621;60.058;30.346;2023-05-22T00:32:25;102210.63;;;14.32;44.51
50650;BME280;36621;60.058;30.346;2023-05-22T00:39:58;102202.41;;;14.05;45.40
50650;BME280;36621;60.058;30.346;2023-05-22T00:47:30;102205.94;;;14.00;45.48
50650;BME280;36621;60.058;30.346;2023-05-22T00:55:03;102189.56;;;13.83;46.71
50650;BME280;36621;60.058;30.346;2023-05-22T01:02:36;102188.31;;;13.91;46.09
50650;BME280;36621;60.058;30.346;2023-05-22T01:10:09;102185.56;;;13.91;46.26
50650;BME280;36621;60.058;30.346;2023-05-22T01:17:45;102164.66;;;13.63;46.38
50650;BME280;36621;60.058;30.346;2023-05-22T01:25:46;102179.81;;;13.93;45.63
50650;BME280;36621;60.058;30.346;2023-05-22T01:33:27;102190.34;;;13.79;46.37
50650;BME280;36621;60.058;30.346;2023-05-22T01:41:03;102189.44;;;13.68;47.68
50650;BME280;36621;60.058;30.346;2023-05-22T01:48:36;102183.31;;;13.88;45.95
50650;BME280;36621;60.058;30.346;2023-05-22T01:56:11;102186.44;;;13.69;46.81
50650;BME280;36621;60.058;30.346;2023-05-22T02:03:47;102175.56;;;13.80;47.43
50650;BME280;36621;60.058;30.346;2023-05-22T02:11:28;102165.59;;;14.38;45.76
50650;BME280;36621;60.058;30.346;2023-05-22T02:19:02;102180.28;;;14.17;45.89
50650;BME280;36621;60.058;30.346;2023-05-22T02:26:56;102172.94;;;13.95;46.50
50650;BME280;36621;60.058;30.346;2023-05-22T02:34:30;102164.56;;;14.07;46.62
50650;BME280;36621;60.058;30.346;2023-05-22T02:42:03;102157.41;;;14.06;46.44
50650;BME280;36621;60.058;30.346;2023-05-22T02:49:36;102134.75;;;14.26;45.34
50650;BME280;36621;60.058;30.346;2023-05-22T02:57:09;102132.75;;;14.11;45.13
50650;BME280;36621;60.058;30.346;2023-05-22T03:04:41;102151.19;;;14.21;44.93
50650;BME280;36621;60.058;30.346;2023-05-22T03:12:13;102182.16;;;14.11;46.39
50650;BME280;36621;60.058;30.346;2023-05-22T03:19:47;102188.66;;;13.72;47.74
50650;BME280;36621;60.058;30.346;2023-05-22T03:27:19;102184.66;;;13.85;47.73
50650;BME280;36621;60.058;30.346;2023-05-22T03:34:55;102187.88;;;14.04;48.30
50650;BME280;36621;60.058;30.346;2023-05-22T03:42:27;102174.28;;;14.20;47.27
50650;BME280;36621;60.058;30.346;2023-05-22T03:49:59;102176.69;;;14.16;47.09
50650;BME280;36621;60.058;30.346;2023-05-22T03:57:33;102193.19;;;14.16;48.04
50650;BME280;36621;60.058;30.346;2023-05-22T04:05:07;102179.94;;;14.46;48.39
50650;BME280;36621;60.058;30.346;2023-05-22T04:12:40;102167.84;;;14.41;49.66
50650;BME280;36621;60.058;30.346;2023-05-22T04:20:14;102201.75;;;14.20;53.37
50650;BME280;36621;60.058;30.346;2023-05-22T04:27:51;102176.38;;;13.80;56.64
50650;BME280;36621;60.058;30.346;2023-05-22T04:35:24;102165.19;;;13.87;59.47
50650;BME280;36621;60.058;30.346;2023-05-22T04:42:59;102143.47;;;14.13;59.00
50650;BME280;36621;60.058;30.346;2023-05-22T04:50:35;102139.31;;;14.53;58.46
50650;BME280;36621;60.058;30.346;2023-05-22T04:58:09;102122.56;;;14.54;57.56
50650;BME280;36621;60.058;30.346;2023-05-22T05:05:42;102115.25;;;14.65;57.42
50650;BME280;36621;60.058;30.346;2023-05-22T05:13:16;102107.69;;;14.88;57.80
50650;BME280;36621;60.058;30.346;2023-05-22T05:20:50;102104.63;;;17.06;52.60
50650;BME280;36621;60.058;30.346;2023-05-22T05:28:22;102099.34;;;17.59;52.57
50650;BME280;36621;60.058;30.346;2023-05-22T05:35:55;102081.13;;;19.57;47.15
50650;BME280;36621;60.058;30.346;2023-05-22T05:43:29;102076.75;;;18.50;49.54
50650;BME280;36621;60.058;30.346;2023-05-22T05:51:09;102084.38;;;17.31;54.12
50650;BME280;36621;60.058;30.346;2023-05-22T05:58:45;102076.03;;;16.91;54.93
50650;BME280;36621;60.058;30.346;2023-05-22T06:06:36;102082.91;;;16.99;55.22
50650;BME280;36621;60.058;30.346;2023-05-22T06:14:19;102081.53;;;17.41;52.97
50650;BME280;36621;60.058;30.346;2023-05-22T06:21:52;102070.81;;;17.34;54.56
50650;BME280;36621;60.058;30.346;2023-05-22T06:29:25;102075.13;;;17.91;52.78
50650;BME280;36621;60.058;30.346;2023-05-22T06:37:00;102082.50;;;18.54;52.24
50650;BME280;36621;60.058;30.346;2023-05-22T06:44:41;102070.63;;;18.53;50.64
50650;BME280;36621;60.058;30.346;2023-05-22T06:52:14;102051.31;;;18.72;49.90
50650;BME280;36621;60.058;30.346;2023-05-22T06:59:47;102061.91;;;18.65;51.68
50650;BME280;36621;60.058;30.346;2023-05-22T07:07:49;102061.56;;;18.72;51.81
50650;BME280;36621;60.058;30.346;2023-05-22T07:15:22;102055.66;;;18.54;52.32
50650;BME280;36621;60.058;30.346;2023-05-22T07:22:58;102039.19;;;18.68;52.89
50650;BME280;36621;60.058;30.346;2023-05-22T07:30:31;102022.44;;;18.79;52.91
50650;BME280;36621;60.058;30.346;2023-05-22T07:38:04;102036.78;;;19.43;50.60
50650;BME280;36621;60.058;30.346;2023-05-22T07:45:36;102031.88;;;19.54;49.69
50650;BME280;36621;60.058;30.346;2023-05-22T07:53:12;102021.53;;;19.59;49.51
50650;BME280;36621;60.058;30.346;2023-05-22T08:00:47;102000.38;;;19.50;48.89
50650;BME280;36621;60.058;30.346;2023-05-22T08:08:20;102004.50;;;19.85;48.39
50650;BME280;36621;60.058;30.346;2023-05-22T08:15:54;101983.06;;;19.91;48.75
50650;BME280;36621;60.058;30.346;2023-05-22T08:23:26;101995.31;;;20.32;49.88
50650;BME280;36621;60.058;30.346;2023-05-22T08:30:58;101999.00;;;20.13;48.36
50650;BME280;36621;60.058;30.346;2023-05-22T08:38:31;102000.53;;;20.19;48.27
50650;BME280;36621;60.058;30.346;2023-05-22T08:46:05;101992.75;;;20.35;48.28
50650;BME280;36621;60.058;30.346;2023-05-22T08:53:41;102004.75;;;20.17;46.76
50650;BME280;36621;60.058;30.346;2023-05-22T09:01:14;101992.41;;;20.09;46.78
50650;BME280;36621;60.058;30.346;2023-05-22T09:08:47;101987.69;;;20.23;46.71
50650;BME280;36621;60.058;30.346;2023-05-22T09:16:20;101990.88;;;20.30;45.94
50650;BME280;36621;60.058;30.346;2023-05-22T09:23:54;101971.28;;;20.27;46.17
50650;BME280;36621;60.058;30.346;2023-05-22T09:31:30;101961.63;;;20.38;46.90
50650;BME280;36621;60.058;30.346;2023-05-22T09:39:03;101965.13;;;20.02;47.35
50650;BME280;36621;60.058;30.346;2023-05-22T09:46:39;101971.97;;;19.91;48.91
50650;BME280;36621;60.058;30.346;2023-05-22T09:54:12;101936.31;;;19.70;48.28
50650;BME280;36621;60.058;30.346;2023-05-22T10:01:46;101956.88;;;19.97;48.89
50650;BME280;36621;60.058;30.346;2023-05-22T10:09:23;101937.06;;;19.76;49.49
50650;BME280;36621;60.058;30.346;2023-05-22T10:16:57;101926.28;;;19.88;48.85
50650;BME280;36621;60.058;30.346;2023-05-22T10:24:33;101921.84;;;20.43;46.54
50650;BME280;36621;60.058;30.346;2023-05-22T10:32:11;101858.84;;;20.57;42.83
50650;BME280;36621;60.058;30.346;2023-05-22T10:40:01;101903.03;;;21.13;40.12
50650;BME280;36621;60.058;30.346;2023-05-22T10:47:35;101880.56;;;20.64;42.77
50650;BME280;36621;60.058;30.346;2023-05-22T10:55:09;101861.72;;;20.89;42.16
50650;BME280;36621;60.058;30.346;2023-05-22T11:02:43;101862.09;;;20.59;42.88
50650;BME280;36621;60.058;30.346;2023-05-22T11:10:25;101870.09;;;20.75;43.65
50650;BME280;36621;60.058;30.346;2023-05-22T11:18:01;101842.44;;;20.47;44.13
50650;BME280;36621;60.058;30.346;2023-05-22T11:25:35;101844.81;;;20.40;44.04
50650;BME280;36621;60.058;30.346;2023-05-22T11:33:07;101829.31;;;20.39;43.98
50650;BME280;36621;60.058;30.346;2023-05-22T11:40:41;101812.91;;;20.28;40.48
50650;BME280;36621;60.058;30.346;2023-05-22T11:48:12;101809.25;;;20.42;40.96
50650;BME280;36621;60.058;30.346;2023-05-22T11:55:47;101799.72;;;20.71;40.00
50650;BME280;36621;60.058;30.346;2023-05-22T12:03:20;101800.44;;;21.08;40.35
50650;BME280;36621;60.058;30.346;2023-05-22T12:10:53;101797.09;;;21.28;38.52
50650;BME280;36621;60.058;30.346;2023-05-22T12:18:25;101792.00;;;21.22;39.35
50650;BME280;36621;60.058;30.346;2023-05-22T12:25:58;101795.16;;;21.38;37.76
50650;BME280;36621;60.058;30.346;2023-05-22T12:33:31;101804.22;;;21.12;39.42
50650;BME280;36621;60.058;30.346;2023-05-22T12:41:03;101802.88;;;20.78;40.61
50650;BME280;36621;60.058;30.346;2023-05-22T12:48:35;101809.16;;;20.70;40.35
50650;BME280;36621;60.058;30.346;2023-05-22T12:56:08;101784.00;;;20.66;39.23
50650;BME280;36621;60.058;30.346;2023-05-22T13:03:40;101780.91;;;20.90;39.38
50650;BME280;36621;60.058;30.346;2023-05-22T13:11:13;101794.41;;;21.14;37.61
50650;BME280;36621;60.058;30.346;2023-05-22T13:18:45;101781.94;;;20.72;39.08
50650;BME280;36621;60.058;30.346;2023-05-22T13:26:18;101809.00;;;20.52;40.72
50650;BME280;36621;60.058;30.346;2023-05-22T13:33:51;101848.03;;;19.50;47.20
50650;BME280;36621;60.058;30.346;2023-05-22T13:41:24;101970.22;;;17.51;56.11
50650;BME280;36621;60.058;30.346;2023-05-22T13:48:56;101938.31;;;14.97;65.86
50650;BME280;36621;60.058;30.346;2023-05-22T13:56:28;101876.81;;;14.19;65.37
50650;BME280;36621;60.058;30.346;2023-05-22T14:04:00;101844.19;;;14.44;66.75
50650;BME280;36621;60.058;30.346;2023-05-22T14:12:04;101694.22;;;14.63;67.04
50650;BME280;36621;60.058;30.346;2023-05-22T14:19:51;101758.69;;;15.27;66.77
50650;BME280;36621;60.058;30.346;2023-05-22T14:27:26;101697.97;;;14.98;66.74
50650;BME280;36621;60.058;30.346;2023-05-22T14:35:01;101757.78;;;15.48;66.81
50650;BME280;36621;60.058;30.346;2023-05-22T14:42:34;101807.44;;;15.97;66.20
50650;BME280;36621;60.058;30.346;2023-05-22T14:50:07;101838.00;;;16.01;64.25
50650;BME280;36621;60.058;30.346;2023-05-22T14:57:40;101835.47;;;16.10;63.93
50650;BME280;36621;60.058;30.346;2023-05-22T15:05:12;101774.16;;;15.89;62.92
50650;BME280;36621;60.058;30.346;2023-05-22T15:12:45;101822.91;;;16.38;63.30
50650;BME280;36621;60.058;30.346;2023-05-22T15:20:17;101809.44;;;16.31;63.80
50650;BME280;36621;60.058;30.346;2023-05-22T15:27:50;101799.03;;;16.63;62.66
50650;BME280;36621;60.058;30.346;2023-05-22T15:35:22;101776.44;;;16.61;62.55
50650;BME280;36621;60.058;30.346;2023-05-22T15:42:54;101774.50;;;16.61;60.74
50650;BME280;36621;60.058;30.346;2023-05-22T15:50:26;101741.94;;;16.63;59.99
50650;BME280;36621;60.058;30.346;2023-05-22T15:57:59;101762.94;;;16.94;59.44
50650;BME280;36621;60.058;30.346;2023-05-22T16:05:33;101759.31;;;16.98;60.29
50650;BME280;36621;60.058;30.346;2023-05-22T16:13:06;101754.34;;;17.00;59.85
50650;BME280;36621;60.058;30.346;2023-05-22T16:20:40;101753.66;;;16.79;59.36
50650;BME280;36621;60.058;30.346;2023-05-22T16:28:13;101743.19;;;16.81;60.12
50650;BME280;36621;60.058;30.346;2023-05-22T16:35:45;101744.78;;;16.58;58.82
50650;BME280;36621;60.058;30.346;2023-05-22T16:43:17;101740.97;;;16.49;60.26
50650;BME280;36621;60.058;30.346;2023-05-22T16:50:55;101645.69;;;16.08;60.63
50650;BME280;36621;60.058;30.346;2023-05-22T17:07:11;101637.25;;;17.31;62.36
50650;BME280;36621;60.058;30.346;2023-05-22T17:14:43;101694.22;;;17.65;58.31
50650;BME280;36621;60.058;30.346;2023-05-22T17:22:19;101723.94;;;17.73;59.31
50650;BME280;36621;60.058;30.346;2023-05-22T17:29:51;101738.63;;;17.68;58.84
50650;BME280;36621;60.058;30.346;2023-05-22T17:37:24;101746.25;;;17.33;59.76
50650;BME280;36621;60.058;30.346;2023-05-22T17:44:56;101752.09;;;17.02;59.69
50650;BME280;36621;60.058;30.346;2023-05-22T17:52:32;101746.94;;;16.96;60.38
50650;BME280;36621;60.058;30.346;2023-05-22T18:00:05;101757.19;;;16.85;60.76
50650;BME280;36621;60.058;30.346;2023-05-22T18:07:47;101751.97;;;16.89;62.45
50650;BME280;36621;60.058;30.346;2023-05-22T18:15:20;101739.19;;;16.63;62.00
50650;BME280;36621;60.058;30.346;2023-05-22T18:22:52;101770.56;;;16.73;62.17
50650;BME280;36621;60.058;30.346;2023-05-22T18:30:25;101769.22;;;16.65;63.49
50650;BME280;36621;60.058;30.346;2023-05-22T18:37:57;101757.34;;;16.35;64.81
50650;BME280;36621;60.058;30.346;2023-05-22T18:45:32;101737.81;;;15.87;63.63
50650;BME280;36621;60.058;30.346;2023-05-22T18:53:08;101773.94;;;15.75;63.24
50650;BME280;36621;60.058;30.346;2023-05-22T19:00:40;101776.44;;;15.61;63.19
50650;BME280;36621;60.058;30.346;2023-05-22T19:08:18;101784.13;;;15.74;65.07
50650;BME280;36621;60.058;30.346;2023-05-22T19:15:50;101758.31;;;15.55;65.04
50650;BME280;36621;60.058;30.346;2023-05-22T19:23:23;101728.44;;;15.22;64.94
50650;BME280;36621;60.058;30.346;2023-05-22T19:30:55;101743.59;;;15.15;63.21
50650;BME280;36621;60.058;30.346;2023-05-22T19:38:31;101716.72;;;14.75;67.21
50650;BME280;36621;60.058;30.346;2023-05-22T19:46:03;101686.50;;;14.34;66.70
50650;BME280;36621;60.058;30.346;2023-05-22T19:53:36;101754.38;;;14.85;66.94
50650;BME280;36621;60.058;30.346;2023-05-22T20:01:08;101746.97;;;14.81;66.89
50650;BME280;36621;60.058;30.346;2023-05-22T20:08:41;101712.03;;;14.50;67.13
50650;BME280;36621;60.058;30.346;2023-05-22T20:16:14;101733.78;;;14.62;67.26
50650;BME280;36621;60.058;30.346;2023-05-22T20:23:47;101748.84;;;14.59;67.94
50650;BME280;36621;60.058;30.346;2023-05-22T20:31:19;101750.78;;;14.49;68.68
50650;BME280;36621;60.058;30.346;2023-05-22T20:38:52;101752.19;;;14.72;68.04
50650;BME280;36621;60.058;30.346;2023-05-22T20:46:38;101757.13;;;14.75;67.79
50650;BME280;36621;60.058;30.346;2023-05-22T20:54:12;101743.63;;;14.42;67.06
50650;BME280;36621;60.058;30.346;2023-05-22T21:01:45;101737.28;;;14.11;67.15
50650;BME280;36621;60.058;30.346;2023-05-22T21:09:17;101739.19;;;14.00;67.68
50650;BME280;36621;60.058;30.346;2023-05-22T21:16:50;101748.00;;;14.13;68.04
50650;BME280;36621;60.058;30.346;2023-05-22T21:24:25;101737.53;;;13.99;67.71
50650;BME280;36621;60.058;30.346;2023-05-22T21:31:57;101751.25;;;13.99;66.95
50650;BME280;36621;60.058;30.346;2023-05-22T21:39:30;101749.28;;;13.84;66.95
50650;BME280;36621;60.058;30.346;2023-05-22T21:47:02;101747.59;;;13.73;67.37
50650;BME280;36621;60.058;30.346;2023-05-22T21:54:35;101742.94;;;13.73;67.71
50650;BME280;36621;60.058;30.346;2023-05-22T22:02:07;101721.75;;;13.53;68.24
50650;BME280;36621;60.058;30.346;2023-05-22T22:09:40;101732.44;;;13.50;68.12
50650;BME280;36621;60.058;30.346;2023-05-22T22:17:12;101729.38;;;13.41;68.01
50650;BME280;36621;60.058;30.346;2023-05-22T22:24:47;101717.78;;;13.34;68.41
50650;BME280;36621;60.058;30.346;2023-05-22T22:32:19;101716.66;;;13.25;66.98
50650;BME280;36621;60.058;30.346;2023-05-22T22:39:52;101689.44;;;13.13;69.17
50650;BME280;36621;60.058;30.346;2023-05-22T22:47:24;101718.88;;;13.28;68.96
50650;BME280;36621;60.058;30.346;2023-05-22T22:54:56;101723.50;;;13.27;68.17
50650;BME280;36621;60.058;30.346;2023-05-22T23:02:28;101725.72;;;13.25;67.89
50650;BME280;36621;60.058;30.346;2023-05-22T23:10:01;101642.59;;;12.66;68.93
50650;BME280;36621;60.058;30.346;2023-05-22T23:17:35;101660.78;;;12.83;68.01
50650;BME280;36621;60.058;30.346;2023-05-22T23:25:09;101685.78;;;12.97;68.57
50650;BME280;36621;60.058;30.346;2023-05-22T23:32:41;101683.59;;;12.94;67.98
50650;BME280;36621;60.058;30.346;2023-05-22T23:40:13;101680.66;;;13.11;68.26
50650;BME280;36621;60.058;30.346;2023-05-22T23:47:45;101699.38;;;13.24;68.59
50650;BME280;36621;60.058;30.346;2023-05-22T23:55:18;101681.03;;;13.30;67.63
